Time;durP1;ratioP1;P1;durP2;ratioP2;P2;SDS_P1;SDS_P2;PMS_P1;PMS_P2;Temp;Humidity;BMP_temperature;BMP_pressure;BME280_temperature;BME280_humidity;BME280_pressure;Samples;Min_cycle;Max_cycle;Signal;HPM_P1;HPM_P2
2022/05/12 00:00:56;;;;;;;12.00;6.63;;;;;;;19.38;65.81;100266.84;5109324;27;20083;-72
2022/05/12 00:03:25;;;;;;;10.70;6.90;;;;;;;19.44;65.10;100273.41;5107984;27;20756;-71
2022/05/12 00:05:51;;;;;;;16.27;6.90;;;;;;;19.97;63.19;100264.72;5109138;27;20075;-72
2022/05/12 00:08:17;;;;;;;12.73;7.60;;;;;;;19.60;63.66;100272.78;5111239;28;20059;-72
2022/05/12 00:10:44;;;;;;;12.02;7.88;;;;;;;19.43;64.36;100275.28;5110282;28;20108;-72
2022/05/12 00:13:10;;;;;;;8.52;7.13;;;;;;;18.71;66.66;100277.69;5111501;27;20154;-71
2022/05/12 00:15:38;;;;;;;10.45;6.80;;;;;;;19.08;65.14;100284.88;5112366;27;20124;-71
2022/05/12 00:18:08;;;;;;;10.70;7.30;;;;;;;19.51;63.72;100287.81;5117869;27;20066;-71
2022/05/12 00:20:39;;;;;;;14.95;7.15;;;;;;;19.28;64.50;100289.16;5132051;27;20072;-71
2022/05/12 00:23:07;;;;;;;11.93;7.50;;;;;;;18.62;66.32;100285.69;5115325;27;20090;-71
2022/05/12 00:25:34;;;;;;;9.85;7.15;;;;;;;19.27;64.89;100285.66;5112118;27;20092;-71
2022/05/12 00:28:00;;;;;;;9.73;6.65;;;;;;;19.56;63.67;100300.66;5111334;28;20063;-71
2022/05/12 00:30:26;;;;;;;10.13;6.40;;;;;;;19.98;61.75;100307.16;5111141;27;20099;-71
2022/05/12 00:32:53;;;;;;;15.18;6.15;;;;;;;19.91;61.51;100304.28;5117974;27;20095;-71
2022/05/12 00:35:19;;;;;;;12.73;6.32;;;;;;;20.07;61.39;100314.22;5132497;27;20093;-71
2022/05/12 00:37:47;;;;;;;8.90;5.53;;;;;;;20.38;60.35;100304.94;5119057;27;20538;-71
2022/05/12 00:40:15;;;;;;;6.80;5.28;;;;;;;20.17;60.99;100331.00;5106511;28;20047;-71
2022/05/12 00:42:56;;;;;;;5.40;4.30;;;;;;;19.07;64.22;100347.81;5111021;27;20071;-71
2022/05/12 00:45:23;;;;;;;9.32;4.28;;;;;;;18.54;66.60;100352.75;5111424;27;20527;-71
2022/05/12 00:47:49;;;;;;;8.88;4.05;;;;;;;18.43;67.06;100363.47;5111415;27;20043;-71
2022/05/12 00:50:16;;;;;;;8.20;4.03;;;;;;;18.56;66.70;100368.53;5111125;27;20043;-71
2022/05/12 00:52:44;;;;;;;6.55;3.83;;;;;;;18.39;67.53;100372.69;5110961;27;20114;-71
2022/05/12 00:55:17;;;;;;;8.57;4.45;;;;;;;18.28;67.66;100381.63;5111660;27;20100;-71
2022/05/12 00:57:47;;;;;;;10.52;3.95;;;;;;;18.19;68.14;100384.22;5109512;27;20059;-71
2022/05/12 01:00:16;;;;;;;12.18;4.38;;;;;;;17.86;69.38;100390.69;5110029;27;20047;-71
2022/05/12 01:02:44;;;;;;;8.75;4.32;;;;;;;18.24;68.51;100374.91;5110973;27;20484;-71
2022/05/12 01:05:11;;;;;;;11.82;3.78;;;;;;;17.92;69.38;100363.66;5112445;27;20054;-71
2022/05/12 01:07:37;;;;;;;8.63;4.20;;;;;;;18.00;69.27;100363.78;5111409;27;20067;-71
2022/05/12 01:10:06;;;;;;;11.38;4.70;;;;;;;17.78;69.88;100374.59;5110713;27;20039;-71
2022/05/12 01:12:35;;;;;;;7.55;4.28;;;;;;;17.73;70.40;100379.50;5110763;27;20055;-71
2022/05/12 01:15:01;;;;;;;9.73;4.50;;;;;;;17.85;70.03;100397.81;5110395;27;20044;-71
2022/05/12 01:17:27;;;;;;;11.07;4.60;;;;;;;17.84;70.26;100401.47;5111476;27;20047;-71
2022/05/12 01:19:54;;;;;;;12.02;4.75;;;;;;;18.00;69.79;100400.94;5110035;28;20048;-71
2022/05/12 01:22:35;;;;;;;9.63;4.60;;;;;;;17.73;71.18;100408.66;5108948;27;20158;-71
2022/05/12 01:25:08;;;;;;;13.83;5.33;;;;;;;17.84;70.67;100405.91;5120988;27;20039;-71
2022/05/12 01:27:35;;;;;;;11.25;5.10;;;;;;;18.04;70.08;100412.13;5111542;27;20863;-71
2022/05/12 01:30:01;;;;;;;11.27;4.53;;;;;;;17.82;70.68;100421.97;5109182;27;20039;-71
2022/05/12 01:32:29;;;;;;;6.65;4.45;;;;;;;17.67;71.34;100441.00;5110149;27;20052;-71
2022/05/12 01:34:56;;;;;;;9.60;4.40;;;;;;;17.73;70.89;100440.50;5105389;27;20075;-71
2022/05/12 01:37:24;;;;;;;8.38;4.32;;;;;;;17.62;70.90;100467.09;5122013;27;20094;-71
2022/05/12 01:39:51;;;;;;;12.23;5.53;;;;;;;17.45;71.39;100466.66;5108544;27;20523;-71
2022/05/12 01:42:20;;;;;;;10.05;4.40;;;;;;;17.30;72.46;100485.66;5103213;27;20496;-71
2022/05/12 01:44:47;;;;;;;8.40;4.97;;;;;;;17.22;74.09;100462.44;5107929;28;20654;-71
2022/05/12 01:47:14;;;;;;;9.30;4.70;;;;;;;17.31;74.25;100455.53;5107871;28;20067;-71
2022/05/12 01:49:41;;;;;;;11.48;5.13;;;;;;;17.21;75.02;100460.78;5109532;28;20233;-71
2022/05/12 01:52:10;;;;;;;9.95;5.32;;;;;;;17.02;75.95;100465.91;5110464;28;20093;-72
2022/05/12 01:54:36;;;;;;;10.52;5.25;;;;;;;17.08;75.82;100472.50;5110709;27;20043;-72
2022/05/12 01:57:03;;;;;;;9.43;4.93;;;;;;;17.42;74.12;100469.56;5104662;27;20069;-72
2022/05/12 01:59:31;;;;;;;12.70;4.47;;;;;;;17.46;73.26;100472.81;5103237;27;20063;-71
2022/05/12 02:01:57;;;;;;;13.98;4.22;;;;;;;17.61;72.25;100490.09;5109010;27;20047;-71
2022/05/12 02:04:24;;;;;;;9.98;4.53;;;;;;;17.97;70.56;100486.09;5107964;27;21025;-71
2022/05/12 02:06:50;;;;;;;15.02;5.80;;;;;;;17.51;71.95;100497.94;5106205;27;20051;-71
2022/05/12 02:09:17;;;;;;;8.93;4.72;;;;;;;17.74;70.58;100501.34;5104687;27;20082;-72
2022/05/12 02:11:44;;;;;;;10.68;4.60;;;;;;;17.67;70.53;100504.63;5109200;28;20514;-71
2022/05/12 02:14:10;;;;;;;8.80;4.68;;;;;;;18.09;69.06;100511.59;5118072;27;20047;-71
2022/05/12 02:16:38;;;;;;;13.15;4.65;;;;;;;17.69;69.63;100514.16;5108579;28;20047;-72
2022/05/12 02:19:05;;;;;;;7.10;4.20;;;;;;;17.94;69.17;100520.84;5109296;27;20100;-72
2022/05/12 02:21:32;;;;;;;7.55;4.80;;;;;;;17.59;69.94;100530.97;5128247;27;20053;-72
2022/05/12 02:23:59;;;;;;;14.93;4.90;;;;;;;17.47;70.40;100531.00;5109439;27;20074;-71
2022/05/12 02:26:26;;;;;;;13.65;4.80;;;;;;;17.20;71.53;100517.38;5101996;28;20104;-71
2022/05/12 02:28:52;;;;;;;16.23;5.55;;;;;;;17.18;72.19;100523.78;5102536;27;20052;-72
2022/05/12 02:31:19;;;;;;;12.13;5.03;;;;;;;17.19;72.79;100522.78;5108829;27;20055;-71
2022/05/12 02:33:46;;;;;;;9.27;4.60;;;;;;;16.95;73.18;100536.25;5103218;27;20742;-71
2022/05/12 02:36:13;;;;;;;9.88;4.47;;;;;;;16.90;73.39;100527.84;5103488;28;20728;-71
2022/05/12 02:38:40;;;;;;;8.95;4.90;;;;;;;17.00;72.69;100526.97;5108775;28;20412;-71
2022/05/12 02:41:06;;;;;;;15.30;5.00;;;;;;;16.75;73.57;100539.66;5109119;28;20047;-71
2022/05/12 02:43:33;;;;;;;13.07;4.97;;;;;;;16.77;73.65;100535.94;5108951;27;20039;-71
2022/05/12 02:46:01;;;;;;;9.18;4.78;;;;;;;16.94;73.68;100534.56;5108988;27;20075;-71
2022/05/12 02:48:31;;;;;;;9.88;5.22;;;;;;;17.07;72.97;100535.28;5109341;28;20411;-72
2022/05/12 02:50:58;;;;;;;12.05;5.20;;;;;;;16.98;73.55;100536.00;5100884;28;20102;-72
2022/05/12 02:53:25;;;;;;;11.45;4.82;;;;;;;16.83;73.79;100563.72;5097430;27;20040;-71
2022/05/12 02:55:52;;;;;;;12.52;4.72;;;;;;;16.84;73.23;100562.78;5097556;28;20047;-71
2022/05/12 02:58:18;;;;;;;13.50;5.20;;;;;;;16.59;74.63;100563.91;5106296;27;20097;-71
2022/05/12 03:00:46;;;;;;;11.00;4.55;;;;;;;16.24;75.49;100566.63;5107790;27;20032;-71
2022/05/12 03:03:13;;;;;;;10.90;5.35;;;;;;;16.07;76.18;100569.75;5109156;27;20047;-71
2022/05/12 03:05:40;;;;;;;11.10;4.53;;;;;;;16.29;75.41;100568.91;5108535;28;20140;-71
2022/05/12 03:08:09;;;;;;;11.35;4.93;;;;;;;16.16;75.16;100568.16;5101399;28;20046;-71
2022/05/12 03:10:36;;;;;;;13.27;4.53;;;;;;;16.18;74.58;100561.81;5108331;27;20060;-71
2022/05/12 03:13:04;;;;;;;14.23;4.47;;;;;;;16.15;74.61;100559.38;5108701;27;20042;-71
2022/05/12 03:15:31;;;;;;;7.95;4.05;;;;;;;16.03;75.45;100568.28;5108823;27;20093;-71
2022/05/12 03:17:57;;;;;;;8.02;4.85;;;;;;;15.96;75.22;100564.44;5109287;28;20100;-71
2022/05/12 03:20:26;;;;;;;10.90;4.38;;;;;;;15.87;75.65;100579.19;5100571;28;20040;-71
2022/05/12 03:22:53;;;;;;;12.13;4.65;;;;;;;16.11;74.72;100573.84;5108883;28;20044;-71
2022/05/12 03:25:22;;;;;;;6.53;3.60;;;;;;;16.14;74.87;100592.09;5109022;27;20148;-71
2022/05/12 03:27:48;;;;;;;9.07;4.00;;;;;;;16.02;74.81;100601.81;5095455;28;20075;-71
2022/05/12 03:30:18;;;;;;;8.60;4.00;;;;;;;16.29;74.33;100598.88;5112818;27;20457;-71
2022/05/12 03:32:45;;;;;;;8.40;3.47;;;;;;;16.16;74.08;100606.03;5126643;27;20058;-71
2022/05/12 03:35:12;;;;;;;8.38;3.58;;;;;;;16.22;73.54;100608.22;5130989;27;20039;-70
2022/05/12 03:37:39;;;;;;;10.15;3.55;;;;;;;16.13;74.20;100608.94;5128122;28;20046;-71
2022/05/12 03:40:08;;;;;;;7.95;3.25;;;;;;;15.71;75.23;100615.66;5123166;27;20047;-71
2022/05/12 03:42:36;;;;;;;8.38;3.50;;;;;;;16.10;74.51;100610.97;5122290;27;20040;-71
2022/05/12 03:45:01;;;;;;;8.55;3.30;;;;;;;16.00;74.31;100616.13;5116326;27;20058;-71
2022/05/12 03:47:31;;;;;;;7.70;3.45;;;;;;;16.00;73.89;100618.78;5107546;27;20070;-71
2022/05/12 03:50:01;;;;;;;8.93;3.13;;;;;;;15.85;74.64;100633.16;5113374;27;20052;-71
2022/05/12 03:52:28;;;;;;;5.35;3.13;;;;;;;16.08;73.39;100642.81;5113744;27;20516;-71
2022/05/12 03:54:55;;;;;;;7.25;3.25;;;;;;;16.00;73.27;100639.94;5113901;27;20100;-71
2022/05/12 03:57:23;;;;;;;7.40;3.10;;;;;;;16.18;72.48;100661.50;5113085;27;20089;-71
2022/05/12 03:59:51;;;;;;;15.48;2.90;;;;;;;16.22;71.84;100653.19;5098334;28;20094;-71
2022/05/12 04:02:19;;;;;;;9.43;3.15;;;;;;;16.00;71.47;100669.84;5111172;28;20067;-71
2022/05/12 04:04:48;;;;;;;5.80;2.63;;;;;;;15.82;70.65;100681.78;5113443;27;20051;-71
2022/05/12 04:07:18;;;;;;;10.13;3.25;;;;;;;15.76;70.33;100682.25;5113677;28;20039;-71
2022/05/12 04:09:44;;;;;;;10.10;3.33;;;;;;;15.64;69.71;100692.88;5112963;28;20380;-71
2022/05/12 04:12:11;;;;;;;7.95;2.65;;;;;;;15.37;70.10;100715.03;5112767;27;20043;-71
2022/05/12 04:14:39;;;;;;;7.97;2.65;;;;;;;15.46;68.91;100716.19;5113600;28;20101;-71
2022/05/12 04:17:08;;;;;;;11.73;2.63;;;;;;;15.34;67.16;100733.75;5096521;28;20044;-71
2022/05/12 04:19:35;;;;;;;4.50;1.60;;;;;;;15.50;66.34;100733.53;5095609;28;20040;-72
2022/05/12 04:22:01;;;;;;;6.90;1.73;;;;;;;15.27;65.73;100747.50;5105210;27;20044;-72
2022/05/12 04:24:27;;;;;;;4.57;1.45;;;;;;;15.40;65.05;100753.63;5110142;27;20044;-71
2022/05/12 04:26:54;;;;;;;3.97;1.55;;;;;;;15.30;65.54;100765.81;5112500;28;20040;-71
2022/05/12 04:29:21;;;;;;;3.38;1.40;;;;;;;15.30;65.55;100771.91;5111993;28;20058;-71
2022/05/12 04:31:47;;;;;;;4.97;1.85;;;;;;;15.09;65.96;100782.19;5113060;28;20105;-71
2022/05/12 04:36:59;;;;;;;5.40;1.85;;;;;;;15.12;65.30;100804.91;5112642;28;20058;-72
2022/05/12 04:39:26;;;;;;;8.25;1.70;;;;;;;15.01;65.52;100807.44;5098682;28;20040;-71
2022/05/12 04:41:52;;;;;;;8.10;2.20;;;;;;;15.16;64.99;100832.78;5112140;27;20054;-72
2022/05/12 04:44:19;;;;;;;9.20;2.28;;;;;;;15.47;64.71;100828.88;5112596;27;20415;-72
2022/05/12 04:46:46;;;;;;;5.35;1.50;;;;;;;15.41;63.14;100819.56;5111351;28;20047;-72
2022/05/12 04:49:14;;;;;;;7.63;1.60;;;;;;;15.63;62.23;100831.31;5111362;27;20054;-72
2022/05/12 04:51:42;;;;;;;3.45;1.20;;;;;;;16.00;61.40;100839.09;5111935;27;20488;-72
2022/05/12 04:54:10;;;;;;;7.07;1.63;;;;;;;15.80;61.95;100846.81;5112301;27;20093;-72
2022/05/12 04:56:37;;;;;;;2.67;1.00;;;;;;;15.78;60.91;100859.28;5111494;27;20142;-71
2022/05/12 04:59:04;;;;;;;4.25;1.60;;;;;;;15.75;61.12;100872.72;5111092;27;20062;-72
2022/05/12 05:01:32;;;;;;;3.22;1.00;;;;;;;15.29;60.94;100875.06;5110939;28;20055;-72
2022/05/12 05:04:00;;;;;;;7.20;1.42;;;;;;;15.34;60.66;100897.56;5108459;27;20097;-72
2022/05/12 05:06:26;;;;;;;5.40;1.60;;;;;;;15.46;61.10;100895.88;5111690;27;20047;-72
2022/05/12 05:08:54;;;;;;;4.15;1.33;;;;;;;15.78;60.35;100894.47;5106118;27;20067;-72
2022/05/12 05:11:20;;;;;;;4.05;1.30;;;;;;;15.75;58.39;100912.38;5111650;27;20044;-72
2022/05/12 05:13:47;;;;;;;6.30;1.60;;;;;;;15.70;58.90;100915.34;5111314;27;20048;-72
2022/05/12 05:16:13;;;;;;;7.95;1.45;;;;;;;15.98;59.25;100919.53;5111005;28;20051;-72
2022/05/12 05:18:40;;;;;;;4.30;1.33;;;;;;;16.03;58.66;100938.56;5111014;28;20043;-72
2022/05/12 05:21:07;;;;;;;4.35;1.02;;;;;;;15.93;58.62;100935.72;5111164;28;20061;-72
2022/05/12 05:23:34;;;;;;;5.30;1.80;;;;;;;15.89;57.80;100936.06;5110649;27;20526;-72
2022/05/12 05:26:02;;;;;;;3.53;1.20;;;;;;;15.77;58.99;100932.47;5110773;28;20061;-72
2022/05/12 05:28:28;;;;;;;4.35;1.30;;;;;;;15.90;58.38;100950.94;5109910;27;20479;-72
2022/05/12 05:30:55;;;;;;;7.00;1.13;;;;;;;16.43;56.21;100961.22;5109686;28;20039;-72
2022/05/12 05:33:21;;;;;;;3.55;1.25;;;;;;;16.82;55.59;100961.91;5110995;27;20079;-72
2022/05/12 05:35:47;;;;;;;5.13;1.27;;;;;;;16.30;56.82;100968.31;5110372;28;20052;-71
2022/05/12 05:38:14;;;;;;;4.85;1.00;;;;;;;16.42;56.40;100975.38;5110114;28;20055;-72
2022/05/12 05:40:40;;;;;;;4.63;1.13;;;;;;;16.29;56.43;100979.88;5110294;27;20480;-72
2022/05/12 05:43:08;;;;;;;10.10;1.38;;;;;;;16.97;55.36;100974.03;5110731;27;20495;-72
2022/05/12 05:45:35;;;;;;;3.50;1.02;;;;;;;16.78;55.98;100979.81;5109884;27;20043;-72
2022/05/12 05:48:05;;;;;;;3.17;1.10;;;;;;;16.61;55.11;100992.63;5110243;27;20617;-72
2022/05/12 05:53:23;;;;;;;4.07;1.52;;;;;;;16.65;55.25;101004.69;5109568;28;20069;-72
2022/05/12 05:53:25;;;;;;;3.15;1.00;;;;;;;17.20;54.35;101006.75;5106971;27;20427;-72
2022/05/12 05:55:52;;;;;;;7.38;1.25;;;;;;;16.91;54.66;101008.91;5090612;28;20058;-72
2022/05/12 05:58:20;;;;;;;4.55;1.10;;;;;;;16.75;54.63;101008.34;5109737;28;20540;-71
2022/05/12 06:00:47;;;;;;;6.97;1.30;;;;;;;16.69;55.92;101025.53;5109358;27;20093;-71
2022/05/12 06:03:14;;;;;;;3.30;1.20;;;;;;;17.65;53.20;101026.31;5109818;28;20091;-71
2022/05/12 06:05:41;;;;;;;2.90;1.20;;;;;;;17.84;53.56;101030.09;5109464;28;20384;-71
2022/05/12 06:08:10;;;;;;;3.30;1.13;;;;;;;18.11;52.55;101042.19;5110114;27;20466;-71
2022/05/12 06:10:36;;;;;;;6.13;1.15;;;;;;;17.84;51.46;101055.78;5109434;27;20406;-71
2022/05/12 06:13:03;;;;;;;1.73;0.80;;;;;;;18.25;50.66;101060.53;5104621;27;20044;-71
2022/05/12 06:15:31;;;;;;;4.60;1.20;;;;;;;18.63;49.41;101060.16;5104323;28;20040;-71
2022/05/12 06:17:57;;;;;;;4.07;1.17;;;;;;;18.17;50.25;101062.94;5109759;28;20073;-71
2022/05/12 06:20:24;;;;;;;5.93;1.10;;;;;;;17.73;51.97;101061.91;5104049;28;20097;-71
2022/05/12 06:22:51;;;;;;;7.05;1.45;;;;;;;17.73;51.69;101066.38;5109173;27;20047;-71
2022/05/12 06:25:18;;;;;;;1.55;0.80;;;;;;;18.61;50.47;101075.38;5109279;27;20048;-71
2022/05/12 06:27:45;;;;;;;5.55;1.13;;;;;;;18.62;50.06;101074.41;5109183;28;20039;-71
2022/05/12 06:30:13;;;;;;;4.25;1.15;;;;;;;18.22;49.27;101084.63;5108217;27;20567;-71
2022/05/12 06:32:43;;;;;;;3.47;1.20;;;;;;;18.32;49.87;101082.97;5096273;28;20044;-71
2022/05/12 06:35:11;;;;;;;3.08;0.98;;;;;;;18.54;50.25;101093.63;5103396;28;20098;-71
2022/05/12 06:37:37;;;;;;;2.45;0.93;;;;;;;18.01;50.04;101103.06;5109276;28;20043;-71
2022/05/12 06:40:04;;;;;;;3.58;1.00;;;;;;;17.71;50.11;101105.41;5108602;27;20073;-71
2022/05/12 06:42:31;;;;;;;5.70;1.20;;;;;;;17.24;51.93;101125.66;5108530;27;20051;-71
2022/05/12 06:44:59;;;;;;;1.70;0.88;;;;;;;17.16;51.21;101121.88;5109159;27;20506;-71
2022/05/12 06:47:25;;;;;;;5.00;1.05;;;;;;;17.28;51.95;101135.09;5108986;28;20047;-71
2022/05/12 06:49:53;;;;;;;2.90;0.80;;;;;;;17.51;52.85;101144.81;5095185;28;20094;-71
2022/05/12 06:52:20;;;;;;;2.70;0.98;;;;;;;17.52;51.82;101137.72;5108070;27;20040;-71
2022/05/12 06:54:46;;;;;;;4.43;1.20;;;;;;;17.40;52.32;101146.59;5106869;27;20073;-71
2022/05/12 06:57:21;;;;;;;3.25;0.90;;;;;;;17.76;51.39;101153.66;5107487;28;20067;-71
2022/05/12 06:59:48;;;;;;;1.98;0.98;;;;;;;17.34;51.21;101152.34;5106744;28;20047;-71
2022/05/12 07:02:14;;;;;;;3.40;0.98;;;;;;;16.90;53.41;101158.19;5108775;28;20054;-71
2022/05/12 07:04:41;;;;;;;2.47;1.02;;;;;;;17.13;52.70;101154.75;5109036;28;20047;-71
2022/05/12 07:07:08;;;;;;;2.60;1.00;;;;;;;17.51;52.24;101166.03;5095525;28;20047;-71
2022/05/12 07:09:35;;;;;;;3.58;0.98;;;;;;;17.51;52.68;101168.69;5094618;27;20125;-71
2022/05/12 07:12:01;;;;;;;4.43;1.20;;;;;;;18.16;50.15;101178.84;5105547;27;20071;-71
2022/05/12 07:14:27;;;;;;;3.08;1.10;;;;;;;18.76;49.42;101183.06;5091363;28;20504;-71
2022/05/12 07:16:54;;;;;;;2.65;0.93;;;;;;;19.17;48.74;101191.25;5096978;28;20539;-71
2022/05/12 07:19:20;;;;;;;2.15;0.98;;;;;;;19.44;47.01;101191.69;5088458;28;20702;-71
2022/05/12 07:27:17;;;;;;;3.45;1.08;;;;;;;21.19;43.49;101195.41;5106199;27;20136;-71
2022/05/12 07:29:43;;;;;;;3.70;1.17;;;;;;;20.87;46.27;101208.88;5106390;28;20047;-71
2022/05/12 07:32:11;;;;;;;3.17;1.00;;;;;;;20.23;45.88;101209.03;5107302;28;20056;-71
2022/05/12 07:34:37;;;;;;;4.82;1.25;;;;;;;20.42;47.83;101207.50;5114516;27;20047;-71
2022/05/12 07:37:05;;;;;;;4.60;1.20;;;;;;;20.00;47.57;101212.78;5106943;28;20555;-71
2022/05/12 07:39:34;;;;;;;4.05;1.10;;;;;;;19.63;48.68;101220.31;5103943;27;20058;-71
2022/05/12 07:42:02;;;;;;;4.90;1.30;;;;;;;18.84;47.92;101233.81;5108268;27;20048;-71
2022/05/12 07:44:32;;;;;;;4.93;1.20;;;;;;;17.54;50.97;101239.22;5108164;28;20427;-71
2022/05/12 07:47:01;;;;;;;5.28;1.42;;;;;;;18.29;49.27;101238.00;5088240;28;20048;-71
2022/05/12 07:49:31;;;;;;;3.70;1.30;;;;;;;19.34;50.78;101232.44;5091096;28;20700;-71
2022/05/12 07:51:58;;;;;;;4.88;1.17;;;;;;;20.01;45.81;101232.25;5099926;27;20480;-71
2022/05/12 07:54:24;;;;;;;4.65;1.33;;;;;;;20.29;46.99;101237.00;5108209;27;20047;-71
2022/05/12 07:56:52;;;;;;;3.63;1.23;;;;;;;20.82;45.32;101240.41;5101614;28;20047;-71
2022/05/12 07:59:19;;;;;;;3.70;1.20;;;;;;;21.90;45.37;101233.44;5103762;27;20039;-71
2022/05/12 08:01:46;;;;;;;9.35;1.30;;;;;;;21.84;41.22;101243.69;5107254;28;20725;-71
2022/05/12 08:04:13;;;;;;;7.85;1.60;;;;;;;21.90;42.70;101230.75;5108086;27;20563;-71
2022/05/12 08:06:39;;;;;;;2.80;1.10;;;;;;;22.20;40.08;101242.19;5108112;28;20040;-71
2022/05/12 08:09:06;;;;;;;3.17;1.30;;;;;;;22.15;41.37;101243.56;5106057;27;20138;-71
2022/05/12 08:11:32;;;;;;;5.35;0.90;;;;;;;22.65;41.63;101247.72;5111411;27;20648;-71
2022/05/12 08:14:01;;;;;;;5.30;1.35;;;;;;;22.44;40.54;101249.72;5104228;27;20051;-71
2022/05/12 08:16:27;;;;;;;5.70;1.42;;;;;;;22.15;41.79;101257.78;5102225;28;20111;-71
2022/05/12 08:18:53;;;;;;;3.72;1.10;;;;;;;21.35;42.42;101273.94;5107369;27;20104;-71
2022/05/12 08:21:23;;;;;;;3.17;1.83;;;;;;;20.64;43.42;101276.63;5109103;27;20069;-71
2022/05/12 08:23:50;;;;;;;5.15;1.67;;;;;;;19.68;45.60;101275.81;5104913;27;20518;-71
2022/05/12 08:26:17;;;;;;;7.47;1.77;;;;;;;19.25;46.22;101281.88;5130791;27;20047;-71
2022/05/12 08:28:44;;;;;;;5.28;1.73;;;;;;;19.73;48.25;101271.78;5131634;27;20070;-71
2022/05/12 08:31:12;;;;;;;4.40;1.60;;;;;;;20.47;45.31;101277.22;5113098;27;20047;-71
2022/05/12 08:33:39;;;;;;;4.03;1.77;;;;;;;20.88;44.48;101282.50;5101721;28;20062;-71
2022/05/12 08:36:07;;;;;;;10.25;1.75;;;;;;;20.34;44.36;101283.59;5102135;27;20039;-71
2022/05/12 08:38:34;;;;;;;4.18;1.65;;;;;;;20.59;45.34;101286.81;5099638;27;20039;-71
2022/05/12 08:41:12;;;;;;;9.50;1.52;;;;;;;20.83;43.61;101293.59;5110827;27;20093;-71
2022/05/12 08:43:51;;;;;;;5.88;1.42;;;;;;;21.42;45.11;101297.41;5111249;27;20040;-71
2022/05/12 08:46:22;;;;;;;6.65;1.45;;;;;;;20.89;42.38;101313.53;5109465;27;20455;-71
2022/05/12 08:48:54;;;;;;;4.80;1.27;;;;;;;20.94;44.74;101318.47;5110914;27;20552;-71
2022/05/12 08:51:22;;;;;;;4.15;1.60;;;;;;;21.60;42.76;101327.78;5115620;27;20035;-71
2022/05/12 08:53:52;;;;;;;4.13;1.40;;;;;;;21.48;41.92;101319.03;5103376;27;20108;-71
2022/05/12 08:56:22;;;;;;;4.45;1.58;;;;;;;21.24;41.51;101327.38;5111152;27;20548;-71
2022/05/12 08:58:50;;;;;;;2.47;1.17;;;;;;;20.84;42.33;101318.44;5110434;27;20457;-71
2022/05/12 09:01:24;;;;;;;5.20;1.20;;;;;;;21.21;42.81;101316.13;5111030;27;20043;-71
2022/05/12 09:04:03;;;;;;;5.57;1.20;;;;;;;21.76;40.48;101309.44;5111306;27;20047;-71
2022/05/12 09:06:33;;;;;;;15.40;1.55;;;;;;;21.22;41.13;101297.31;5110678;27;20456;-71
2022/05/12 09:09:06;;;;;;;4.03;1.40;;;;;;;21.98;43.06;101308.38;5104995;27;20419;-71
2022/05/12 09:11:42;;;;;;;4.85;1.40;;;;;;;22.18;40.92;101307.41;5105921;27;20056;-71
2022/05/12 09:14:18;;;;;;;8.75;1.50;;;;;;;;;;5096284;27;20040;-71
2022/05/12 09:16:52;;;;;;;3.35;1.55;;;;;;;21.83;41.13;101316.75;5101938;28;20104;-71
2022/05/12 09:19:19;;;;;;;2.92;1.30;;;;;;;21.50;41.52;101311.75;5110316;28;20047;-71
2022/05/12 09:21:46;;;;;;;4.45;1.70;;;;;;;21.26;41.84;101325.41;5100983;28;20047;-71
2022/05/12 09:24:13;;;;;;;4.20;1.73;;;;;;;21.35;41.56;101324.63;5109610;27;20067;-71
2022/05/12 09:26:44;;;;;;;3.08;1.40;;;;;;;21.43;41.20;101331.09;5108900;27;20035;-71
2022/05/12 09:29:14;;;;;;;9.77;1.33;;;;;;;21.82;43.49;101327.56;5109497;27;20051;-71
2022/05/12 09:31:43;;;;;;;2.88;1.10;;;;;;;22.42;38.07;101321.19;5098471;28;20054;-71
2022/05/12 09:34:33;;;;;;;5.63;1.52;;;;;;;22.30;38.56;101309.81;5102385;27;20569;-71
2022/05/12 09:37:18;;;;;;;4.03;1.15;;;;;;;21.92;38.54;101317.78;5103599;27;20047;-71
2022/05/12 09:39:47;;;;;;;4.93;1.05;;;;;;;21.54;39.72;101312.31;5108394;27;20040;-71
2022/05/12 09:42:36;;;;;;;4.88;1.40;;;;;;;21.06;42.75;101328.94;5102066;27;20498;-71
2022/05/12 09:45:06;;;;;;;4.07;1.20;;;;;;;21.79;41.13;101320.69;5102402;27;20056;-71
2022/05/12 09:47:34;;;;;;;7.57;1.75;;;;;;;22.08;41.89;101322.56;5119781;27;20105;-71
2022/05/12 09:50:16;;;;;;;3.97;1.55;;;;;;;22.22;40.49;101316.81;5108409;27;20048;-71
2022/05/12 09:52:43;;;;;;;5.80;1.40;;;;;;;22.57;40.35;101308.25;5109766;27;20484;-70
2022/05/12 09:55:14;;;;;;;5.35;1.45;;;;;;;23.08;39.70;101322.09;5110098;27;20104;-71
2022/05/12 09:57:47;;;;;;;3.90;1.20;;;;;;;23.34;38.94;101330.31;5100209;27;20074;-71
2022/05/12 10:00:27;;;;;;;3.58;1.50;;;;;;;23.79;38.61;101327.72;5112322;27;20120;-71
2022/05/12 10:08:28;;;;;;;2.95;1.23;;;;;;;24.35;36.29;101319.44;5120702;27;20172;-71
2022/05/12 10:10:58;;;;;;;5.20;1.38;;;;;;;24.51;35.71;101322.25;5108610;27;20566;-71
2022/05/12 10:13:33;;;;;;;3.95;1.40;;;;;;;24.24;35.26;101317.81;5109793;27;20047;-71
2022/05/12 10:16:00;;;;;;;3.20;1.17;;;;;;;23.00;35.39;101323.78;5109801;28;20416;-71
2022/05/12 10:18:31;;;;;;;3.55;1.50;;;;;;;22.83;38.91;101320.03;5097587;28;20488;-71
2022/05/12 10:21:18;;;;;;;4.15;1.80;;;;;;;23.53;38.06;101327.56;5088583;28;20044;-71
2022/05/12 10:23:57;;;;;;;4.60;1.55;;;;;;;24.47;35.31;101311.97;5108462;27;20523;-71
2022/05/12 10:26:30;;;;;;;4.20;1.30;;;;;;;24.36;37.47;101309.53;5109965;27;20051;-71
2022/05/12 10:29:02;;;;;;;6.30;1.50;;;;;;;24.06;34.75;101311.56;5108964;28;20051;-73
2022/05/12 10:31:36;;;;;;;3.42;1.35;;;;;;;24.05;35.41;101309.06;5109695;27;20051;-72
2022/05/12 10:34:17;;;;;;;5.07;1.58;;;;;;;23.75;35.30;101323.66;5107919;27;20512;-72
2022/05/12 10:36:54;;;;;;;5.13;1.20;;;;;;;24.02;34.80;101328.94;5108380;28;20556;-71
2022/05/12 10:39:28;;;;;;;4.75;1.27;;;;;;;24.00;33.77;101328.28;5106322;27;20384;-72
2022/05/12 10:42:07;;;;;;;4.90;1.30;;;;;;;24.03;34.93;101322.59;5100671;27;20043;-72
2022/05/12 10:45:00;;;;;;;7.05;1.40;;;;;;;24.02;33.48;101304.03;5088760;28;20051;-72
2022/05/12 10:47:53;;;;;;;4.05;1.05;;;;;;;23.31;34.95;101314.53;5089238;28;20063;-72
2022/05/12 10:50:25;;;;;;;6.70;1.55;;;;;;;23.53;35.46;101318.69;5090986;28;20120;-71
2022/05/12 10:53:02;;;;;;;4.40;1.05;;;;;;;23.14;32.63;101324.16;5107027;27;20083;-71
2022/05/12 10:55:40;;;;;;;3.08;1.00;;;;;;;22.53;34.22;101321.03;5107177;27;20061;-72
2022/05/12 10:58:21;;;;;;;4.18;1.40;;;;;;;23.18;34.06;101332.75;5107391;28;20061;-72
2022/05/12 11:00:57;;;;;;;3.78;0.98;;;;;;;22.14;33.21;101330.88;5100037;28;20481;-71
2022/05/12 11:03:27;;;;;;;3.65;1.15;;;;;;;21.94;35.24;101334.50;5088856;28;20052;-72
2022/05/12 11:05:57;;;;;;;7.82;1.35;;;;;;;22.05;36.89;101323.72;5090280;28;20105;-71
2022/05/12 11:08:30;;;;;;;4.90;1.25;;;;;;;22.60;35.97;101323.97;5094806;28;20044;-72
2022/05/12 11:11:00;;;;;;;4.32;1.30;;;;;;;22.80;36.05;101328.31;5107255;27;20124;-71
2022/05/12 11:13:32;;;;;;;5.38;1.92;;;;;;;22.46;36.84;101327.09;5106128;27;20411;-73
2022/05/12 11:16:00;;;;;;;3.88;1.08;;;;;;;21.94;35.48;101323.00;5097058;27;20044;-71
2022/05/12 11:18:34;;;;;;;3.72;1.20;;;;;;;21.94;37.43;101336.34;5088459;28;20177;-71
2022/05/12 11:21:08;;;;;;;3.45;1.10;;;;;;;22.69;37.63;101324.00;5085578;27;20048;-71
2022/05/12 11:23:51;;;;;;;7.78;1.67;;;;;;;23.16;37.05;101316.84;5088737;27;20457;-71
2022/05/12 11:26:32;;;;;;;5.10;1.17;;;;;;;23.51;34.07;101324.19;5104950;28;20039;-72
2022/05/12 11:31:58;;;;;;;4.47;1.42;;;;;;;23.06;34.39;101317.88;5099487;28;20564;-72
2022/05/12 11:34:26;;;;;;;2.40;1.30;;;;;;;23.05;36.26;101322.38;5108498;28;20039;-72
2022/05/12 11:36:55;;;;;;;2.30;1.02;;;;;;;23.41;33.78;101318.00;5100999;28;20043;-71
2022/05/12 11:39:30;;;;;;;5.63;1.60;;;;;;;24.09;35.06;101330.03;5110154;27;20438;-71
2022/05/12 11:42:12;;;;;;;4.65;1.30;;;;;;;24.15;34.44;101318.75;5108275;27;20055;-71
2022/05/12 11:44:46;;;;;;;3.85;1.30;;;;;;;23.26;32.74;101325.69;5105154;28;20092;-71
2022/05/12 11:47:55;;;;;;;3.33;1.63;;;;;;;23.28;35.43;101325.53;5112650;28;20065;-71
2022/05/12 11:50:44;;;;;;;6.68;1.88;;;;;;;24.12;35.97;101313.66;5112040;28;20412;-71